sensor_id;sensor_type;location;lat;lon;timestamp;P1;durP1;ratioP1;P2;durP2;ratioP2
26219;SDS011;13955;55.574;37.474;2022-09-28T00:00:35;5.93;;;4.20;;
26219;SDS011;13955;55.574;37.474;2022-09-28T00:03:08;6.10;;;3.83;;
26219;SDS011;13955;55.574;37.474;2022-09-28T00:05:38;6.20;;;4.00;;
26219;SDS011;13955;55.574;37.474;2022-09-28T00:08:08;6.27;;;4.30;;
26219;SDS011;13955;55.574;37.474;2022-09-28T00:10:38;6.43;;;4.27;;
26219;SDS011;13955;55.574;37.474;2022-09-28T00:13:10;4.83;;;3.98;;
26219;SDS011;13955;55.574;37.474;2022-09-28T00:15:40;5.05;;;4.05;;
26219;SDS011;13955;55.574;37.474;2022-09-28T00:18:10;5.20;;;4.20;;
26219;SDS011;13955;55.574;37.474;2022-09-28T00:20:40;4.87;;;3.93;;
26219;SDS011;13955;55.574;37.474;2022-09-28T00:23:10;5.27;;;4.60;;
26219;SDS011;13955;55.574;37.474;2022-09-28T00:25:41;3.98;;;2.85;;
26219;SDS011;13955;55.574;37.474;2022-09-28T00:28:11;5.53;;;4.57;;
26219;SDS011;13955;55.574;37.474;2022-09-28T00:30:41;4.37;;;3.30;;
26219;SDS011;13955;55.574;37.474;2022-09-28T00:33:11;8.38;;;3.98;;
26219;SDS011;13955;55.574;37.474;2022-09-28T00:35:41;4.50;;;3.67;;
26219;SDS011;13955;55.574;37.474;2022-09-28T00:38:12;7.45;;;4.50;;
26219;SDS011;13955;55.574;37.474;2022-09-28T00:40:43;6.78;;;5.08;;
26219;SDS011;13955;55.574;37.474;2022-09-28T00:43:17;7.90;;;4.83;;
26219;SDS011;13955;55.574;37.474;2022-09-28T00:45:51;22.52;;;15.05;;
26219;SDS011;13955;55.574;37.474;2022-09-28T00:48:21;85.72;;;52.67;;
26219;SDS011;13955;55.574;37.474;2022-09-28T00:50:53;85.35;;;47.93;;
26219;SDS011;13955;55.574;37.474;2022-09-28T00:53:25;11.08;;;6.80;;
26219;SDS011;13955;55.574;37.474;2022-09-28T00:55:58;65.03;;;32.33;;
26219;SDS011;13955;55.574;37.474;2022-09-28T00:58:33;66.82;;;33.38;;
26219;SDS011;13955;55.574;37.474;2022-09-28T01:01:04;52.03;;;27.22;;
26219;SDS011;13955;55.574;37.474;2022-09-28T01:03:35;9.63;;;6.42;;
26219;SDS011;13955;55.574;37.474;2022-09-28T01:06:09;22.62;;;10.95;;
26219;SDS011;13955;55.574;37.474;2022-09-28T01:08:40;84.10;;;40.55;;
26219;SDS011;13955;55.574;37.474;2022-09-28T01:11:13;33.18;;;17.30;;
26219;SDS011;13955;55.574;37.474;2022-09-28T01:13:43;42.83;;;18.70;;
26219;SDS011;13955;55.574;37.474;2022-09-28T01:22:34;4.45;;;3.85;;
26219;SDS011;13955;55.574;37.474;2022-09-28T01:25:16;4.25;;;3.40;;
26219;SDS011;13955;55.574;37.474;2022-09-28T01:27:56;4.37;;;3.40;;
26219;SDS011;13955;55.574;37.474;2022-09-28T01:30:29;4.05;;;3.65;;
26219;SDS011;13955;55.574;37.474;2022-09-28T01:33:04;3.87;;;3.22;;
26219;SDS011;13955;55.574;37.474;2022-09-28T01:35:36;5.47;;;3.17;;
26219;SDS011;13955;55.574;37.474;2022-09-28T01:38:13;4.37;;;3.20;;
26219;SDS011;13955;55.574;37.474;2022-09-28T01:40:44;5.20;;;3.50;;
26219;SDS011;13955;55.574;37.474;2022-09-28T01:43:20;4.25;;;3.33;;
26219;SDS011;13955;55.574;37.474;2022-09-28T01:45:54;4.10;;;3.02;;
26219;SDS011;13955;55.574;37.474;2022-09-28T01:48:30;4.42;;;3.45;;
26219;SDS011;13955;55.574;37.474;2022-09-28T01:51:03;5.65;;;3.62;;
26219;SDS011;13955;55.574;37.474;2022-09-28T01:53:40;4.60;;;3.67;;
26219;SDS011;13955;55.574;37.474;2022-09-28T01:56:17;5.03;;;3.25;;
26219;SDS011;13955;55.574;37.474;2022-09-28T01:59:05;3.85;;;3.45;;
26219;SDS011;13955;55.574;37.474;2022-09-28T02:01:36;4.22;;;3.00;;
26219;SDS011;13955;55.574;37.474;2022-09-28T02:04:21;4.05;;;3.33;;
26219;SDS011;13955;55.574;37.474;2022-09-28T02:07:18;5.15;;;3.25;;
26219;SDS011;13955;55.574;37.474;2022-09-28T02:09:59;3.77;;;3.10;;
26219;SDS011;13955;55.574;37.474;2022-09-28T02:15:11;3.98;;;3.50;;
26219;SDS011;13955;55.574;37.474;2022-09-28T02:17:46;4.90;;;3.50;;
26219;SDS011;13955;55.574;37.474;2022-09-28T02:20:17;5.45;;;3.10;;
26219;SDS011;13955;55.574;37.474;2022-09-28T02:22:49;4.28;;;2.98;;
26219;SDS011;13955;55.574;37.474;2022-09-28T02:25:29;4.30;;;3.05;;
26219;SDS011;13955;55.574;37.474;2022-09-28T02:28:05;3.62;;;3.22;;
26219;SDS011;13955;55.574;37.474;2022-09-28T02:30:38;6.05;;;3.58;;
26219;SDS011;13955;55.574;37.474;2022-09-28T02:33:15;3.80;;;3.00;;
26219;SDS011;13955;55.574;37.474;2022-09-28T02:35:49;3.45;;;2.72;;
26219;SDS011;13955;55.574;37.474;2022-09-28T02:38:20;6.80;;;2.95;;
26219;SDS011;13955;55.574;37.474;2022-09-28T02:58:01;5.72;;;2.98;;
26219;SDS011;13955;55.574;37.474;2022-09-28T03:00:53;5.22;;;4.30;;
26219;SDS011;13955;55.574;37.474;2022-09-28T03:03:49;5.20;;;3.80;;
26219;SDS011;13955;55.574;37.474;2022-09-28T03:06:31;2.85;;;2.60;;
26219;SDS011;13955;55.574;37.474;2022-09-28T03:11:57;4.15;;;3.47;;
26219;SDS011;13955;55.574;37.474;2022-09-28T03:14:29;6.35;;;4.15;;
26219;SDS011;13955;55.574;37.474;2022-09-28T03:17:00;3.77;;;3.37;;
26219;SDS011;13955;55.574;37.474;2022-09-28T03:19:31;5.78;;;4.20;;
26219;SDS011;13955;55.574;37.474;2022-09-28T03:22:03;5.20;;;3.37;;
26219;SDS011;13955;55.574;37.474;2022-09-28T03:24:35;6.20;;;4.20;;
26219;SDS011;13955;55.574;37.474;2022-09-28T03:27:05;4.00;;;2.93;;
26219;SDS011;13955;55.574;37.474;2022-09-28T03:29:36;2.72;;;2.10;;
26219;SDS011;13955;55.574;37.474;2022-09-28T03:32:08;2.75;;;2.50;;
26219;SDS011;13955;55.574;37.474;2022-09-28T03:34:38;3.03;;;2.73;;
26219;SDS011;13955;55.574;37.474;2022-09-28T03:37:08;3.42;;;3.12;;
26219;SDS011;13955;55.574;37.474;2022-09-28T03:39:40;3.35;;;3.00;;
26219;SDS011;13955;55.574;37.474;2022-09-28T03:42:10;6.97;;;3.40;;
26219;SDS011;13955;55.574;37.474;2022-09-28T03:44:42;5.03;;;2.75;;
26219;SDS011;13955;55.574;37.474;2022-09-28T03:47:12;3.65;;;2.95;;
26219;SDS011;13955;55.574;37.474;2022-09-28T03:49:44;5.12;;;2.80;;
26219;SDS011;13955;55.574;37.474;2022-09-28T03:52:15;4.17;;;2.92;;
26219;SDS011;13955;55.574;37.474;2022-09-28T03:54:45;4.30;;;3.05;;
26219;SDS011;13955;55.574;37.474;2022-09-28T03:57:15;2.80;;;2.30;;
26219;SDS011;13955;55.574;37.474;2022-09-28T03:59:45;2.83;;;2.00;;
26219;SDS011;13955;55.574;37.474;2022-09-28T04:02:15;4.08;;;3.25;;
26219;SDS011;13955;55.574;37.474;2022-09-28T04:04:45;2.80;;;1.63;;
26219;SDS011;13955;55.574;37.474;2022-09-28T04:07:16;4.33;;;3.20;;
26219;SDS011;13955;55.574;37.474;2022-09-28T04:09:46;7.45;;;4.45;;
26219;SDS011;13955;55.574;37.474;2022-09-28T04:12:16;5.80;;;4.37;;
26219;SDS011;13955;55.574;37.474;2022-09-28T04:14:47;4.73;;;3.23;;
26219;SDS011;13955;55.574;37.474;2022-09-28T04:17:18;10.05;;;4.62;;
26219;SDS011;13955;55.574;37.474;2022-09-28T04:19:48;6.03;;;4.08;;
26219;SDS011;13955;55.574;37.474;2022-09-28T04:22:20;8.08;;;4.10;;
26219;SDS011;13955;55.574;37.474;2022-09-28T04:24:51;5.17;;;3.65;;
26219;SDS011;13955;55.574;37.474;2022-09-28T04:27:21;4.60;;;3.90;;
26219;SDS011;13955;55.574;37.474;2022-09-28T04:30:09;4.40;;;3.22;;
26219;SDS011;13955;55.574;37.474;2022-09-28T04:32:41;5.80;;;4.25;;
26219;SDS011;13955;55.574;37.474;2022-09-28T04:35:13;7.28;;;4.35;;
26219;SDS011;13955;55.574;37.474;2022-09-28T04:37:43;5.28;;;3.15;;
26219;SDS011;13955;55.574;37.474;2022-09-28T04:40:13;6.73;;;4.00;;
26219;SDS011;13955;55.574;37.474;2022-09-28T04:42:44;6.97;;;4.03;;
26219;SDS011;13955;55.574;37.474;2022-09-28T04:45:15;4.45;;;3.80;;
26219;SDS011;13955;55.574;37.474;2022-09-28T04:47:46;4.58;;;3.70;;
26219;SDS011;13955;55.574;37.474;2022-09-28T04:50:24;7.25;;;4.22;;
26219;SDS011;13955;55.574;37.474;2022-09-28T04:53:13;6.05;;;4.87;;
26219;SDS011;13955;55.574;37.474;2022-09-28T04:55:44;4.00;;;3.50;;
26219;SDS011;13955;55.574;37.474;2022-09-28T04:58:15;6.70;;;4.67;;
26219;SDS011;13955;55.574;37.474;2022-09-28T05:03:21;6.85;;;4.30;;
26219;SDS011;13955;55.574;37.474;2022-09-28T05:06:11;5.78;;;4.72;;
26219;SDS011;13955;55.574;37.474;2022-09-28T05:08:44;6.53;;;5.00;;
26219;SDS011;13955;55.574;37.474;2022-09-28T05:11:14;5.53;;;4.72;;
26219;SDS011;13955;55.574;37.474;2022-09-28T05:13:45;6.15;;;4.30;;
26219;SDS011;13955;55.574;37.474;2022-09-28T05:16:18;5.25;;;4.00;;
26219;SDS011;13955;55.574;37.474;2022-09-28T05:19:05;6.67;;;5.35;;
26219;SDS011;13955;55.574;37.474;2022-09-28T05:21:35;5.95;;;4.75;;
26219;SDS011;13955;55.574;37.474;2022-09-28T05:24:05;5.13;;;4.27;;
26219;SDS011;13955;55.574;37.474;2022-09-28T05:26:37;5.87;;;4.58;;
26219;SDS011;13955;55.574;37.474;2022-09-28T05:29:09;6.92;;;4.92;;
26219;SDS011;13955;55.574;37.474;2022-09-28T05:31:57;6.42;;;5.00;;
26219;SDS011;13955;55.574;37.474;2022-09-28T05:34:41;5.33;;;4.78;;
26219;SDS011;13955;55.574;37.474;2022-09-28T05:37:13;5.90;;;4.55;;
26219;SDS011;13955;55.574;37.474;2022-09-28T05:39:45;8.40;;;4.60;;
26219;SDS011;13955;55.574;37.474;2022-09-28T05:42:15;6.97;;;4.07;;
26219;SDS011;13955;55.574;37.474;2022-09-28T05:44:45;4.97;;;4.47;;
26219;SDS011;13955;55.574;37.474;2022-09-28T05:47:15;5.87;;;3.00;;
26219;SDS011;13955;55.574;37.474;2022-09-28T05:49:46;6.72;;;3.60;;
26219;SDS011;13955;55.574;37.474;2022-09-28T05:52:16;4.47;;;3.70;;
26219;SDS011;13955;55.574;37.474;2022-09-28T05:54:46;6.28;;;3.83;;
26219;SDS011;13955;55.574;37.474;2022-09-28T05:57:16;4.63;;;3.97;;
26219;SDS011;13955;55.574;37.474;2022-09-28T05:59:46;5.17;;;4.10;;
26219;SDS011;13955;55.574;37.474;2022-09-28T06:02:16;3.63;;;2.90;;
26219;SDS011;13955;55.574;37.474;2022-09-28T06:04:47;3.47;;;2.90;;
26219;SDS011;13955;55.574;37.474;2022-09-28T06:07:18;6.22;;;4.17;;
26219;SDS011;13955;55.574;37.474;2022-09-28T06:12:19;3.95;;;2.42;;
26219;SDS011;13955;55.574;37.474;2022-09-28T06:14:52;2.72;;;2.20;;
26219;SDS011;13955;55.574;37.474;2022-09-28T06:17:22;4.63;;;3.17;;
26219;SDS011;13955;55.574;37.474;2022-09-28T06:19:54;6.33;;;3.52;;
26219;SDS011;13955;55.574;37.474;2022-09-28T06:22:28;5.10;;;4.03;;
26219;SDS011;13955;55.574;37.474;2022-09-28T06:25:00;4.05;;;3.47;;
26219;SDS011;13955;55.574;37.474;2022-09-28T06:27:30;3.53;;;2.43;;
26219;SDS011;13955;55.574;37.474;2022-09-28T06:30:01;5.50;;;3.10;;
26219;SDS011;13955;55.574;37.474;2022-09-28T06:32:34;3.52;;;2.80;;
26219;SDS011;13955;55.574;37.474;2022-09-28T06:35:06;4.08;;;3.45;;
26219;SDS011;13955;55.574;37.474;2022-09-28T06:37:36;6.58;;;3.72;;
26219;SDS011;13955;55.574;37.474;2022-09-28T06:40:07;4.83;;;2.98;;
26219;SDS011;13955;55.574;37.474;2022-09-28T06:42:37;6.35;;;3.27;;
26219;SDS011;13955;55.574;37.474;2022-09-28T06:45:15;4.53;;;3.40;;
26219;SDS011;13955;55.574;37.474;2022-09-28T06:47:51;4.42;;;3.00;;
26219;SDS011;13955;55.574;37.474;2022-09-28T06:50:28;8.28;;;3.10;;
26219;SDS011;13955;55.574;37.474;2022-09-28T06:53:09;4.70;;;2.67;;
26219;SDS011;13955;55.574;37.474;2022-09-28T06:55:58;7.12;;;3.35;;
26219;SDS011;13955;55.574;37.474;2022-09-28T06:58:30;6.28;;;2.92;;
26219;SDS011;13955;55.574;37.474;2022-09-28T07:01:00;3.87;;;3.17;;
26219;SDS011;13955;55.574;37.474;2022-09-28T07:03:34;4.10;;;3.15;;
26219;SDS011;13955;55.574;37.474;2022-09-28T07:06:08;6.95;;;4.03;;
26219;SDS011;13955;55.574;37.474;2022-09-28T07:08:43;5.22;;;3.85;;
26219;SDS011;13955;55.574;37.474;2022-09-28T07:11:26;4.15;;;3.50;;
26219;SDS011;13955;55.574;37.474;2022-09-28T07:14:13;4.80;;;3.60;;
26219;SDS011;13955;55.574;37.474;2022-09-28T07:16:44;6.37;;;3.97;;
26219;SDS011;13955;55.574;37.474;2022-09-28T07:19:14;6.95;;;4.30;;
26219;SDS011;13955;55.574;37.474;2022-09-28T07:21:44;7.50;;;4.03;;
26219;SDS011;13955;55.574;37.474;2022-09-28T07:24:15;6.28;;;3.02;;
26219;SDS011;13955;55.574;37.474;2022-09-28T07:26:55;7.22;;;4.25;;
26219;SDS011;13955;55.574;37.474;2022-09-28T07:29:39;5.90;;;4.20;;
26219;SDS011;13955;55.574;37.474;2022-09-28T07:32:19;8.57;;;4.67;;
26219;SDS011;13955;55.574;37.474;2022-09-28T07:34:54;7.72;;;4.60;;
26219;SDS011;13955;55.574;37.474;2022-09-28T07:37:26;5.62;;;4.22;;
26219;SDS011;13955;55.574;37.474;2022-09-28T07:39:56;4.73;;;2.90;;
26219;SDS011;13955;55.574;37.474;2022-09-28T07:42:44;5.87;;;3.70;;
26219;SDS011;13955;55.574;37.474;2022-09-28T07:45:14;4.20;;;2.80;;
26219;SDS011;13955;55.574;37.474;2022-09-28T07:47:45;9.33;;;5.08;;
26219;SDS011;13955;55.574;37.474;2022-09-28T07:50:20;6.45;;;4.15;;
26219;SDS011;13955;55.574;37.474;2022-09-28T07:52:55;4.37;;;3.90;;
26219;SDS011;13955;55.574;37.474;2022-09-28T07:55:27;6.83;;;3.75;;
26219;SDS011;13955;55.574;37.474;2022-09-28T07:58:01;6.37;;;4.05;;
26219;SDS011;13955;55.574;37.474;2022-09-28T08:00:45;6.03;;;3.22;;
26219;SDS011;13955;55.574;37.474;2022-09-28T08:03:17;6.53;;;4.03;;
26219;SDS011;13955;55.574;37.474;2022-09-28T08:05:49;6.78;;;4.25;;
26219;SDS011;13955;55.574;37.474;2022-09-28T08:08:19;6.10;;;4.07;;
26219;SDS011;13955;55.574;37.474;2022-09-28T08:10:49;8.90;;;5.20;;
26219;SDS011;13955;55.574;37.474;2022-09-28T08:13:24;7.92;;;3.90;;
26219;SDS011;13955;55.574;37.474;2022-09-28T08:16:02;7.67;;;4.80;;
26219;SDS011;13955;55.574;37.474;2022-09-28T08:18:52;8.58;;;4.45;;
26219;SDS011;13955;55.574;37.474;2022-09-28T08:21:22;7.15;;;4.12;;
26219;SDS011;13955;55.574;37.474;2022-09-28T08:24:14;6.92;;;4.45;;
26219;SDS011;13955;55.574;37.474;2022-09-28T08:26:47;8.15;;;4.37;;
26219;SDS011;13955;55.574;37.474;2022-09-28T08:29:18;4.83;;;4.28;;
26219;SDS011;13955;55.574;37.474;2022-09-28T08:31:52;6.40;;;5.03;;
26219;SDS011;13955;55.574;37.474;2022-09-28T08:34:36;8.98;;;5.33;;
26219;SDS011;13955;55.574;37.474;2022-09-28T08:37:25;11.97;;;6.22;;
26219;SDS011;13955;55.574;37.474;2022-09-28T08:40:15;8.23;;;5.12;;
26219;SDS011;13955;55.574;37.474;2022-09-28T08:42:59;7.17;;;5.22;;
26219;SDS011;13955;55.574;37.474;2022-09-28T08:45:32;7.12;;;3.95;;
26219;SDS011;13955;55.574;37.474;2022-09-28T08:48:16;7.28;;;4.97;;
26219;SDS011;13955;55.574;37.474;2022-09-28T08:51:19;10.98;;;5.37;;
26219;SDS011;13955;55.574;37.474;2022-09-28T08:56:53;10.28;;;6.55;;
26219;SDS011;13955;55.574;37.474;2022-09-28T08:59:36;7.90;;;6.03;;
26219;SDS011;13955;55.574;37.474;2022-09-28T09:02:01;7.85;;;6.17;;
26219;SDS011;13955;55.574;37.474;2022-09-28T09:04:33;12.18;;;7.10;;
26219;SDS011;13955;55.574;37.474;2022-09-28T09:07:18;9.13;;;5.50;;
26219;SDS011;13955;55.574;37.474;2022-09-28T09:10:17;9.95;;;5.67;;
26219;SDS011;13955;55.574;37.474;2022-09-28T09:19:13;7.20;;;5.65;;
26219;SDS011;13955;55.574;37.474;2022-09-28T09:22:00;6.97;;;5.37;;
26219;SDS011;13955;55.574;37.474;2022-09-28T09:30:19;8.90;;;6.42;;
26219;SDS011;13955;55.574;37.474;2022-09-28T09:35:52;9.23;;;6.47;;
26219;SDS011;13955;55.574;37.474;2022-09-28T09:44:54;8.70;;;6.08;;
26219;SDS011;13955;55.574;37.474;2022-09-28T09:47:36;11.85;;;5.67;;
26219;SDS011;13955;55.574;37.474;2022-09-28T09:50:19;11.43;;;6.37;;
26219;SDS011;13955;55.574;37.474;2022-09-28T09:53:03;8.53;;;6.87;;
26219;SDS011;13955;55.574;37.474;2022-09-28T09:55:42;7.75;;;5.65;;
26219;SDS011;13955;55.574;37.474;2022-09-28T10:01:14;9.43;;;6.65;;
26219;SDS011;13955;55.574;37.474;2022-09-28T10:03:59;13.28;;;6.22;;
26219;SDS011;13955;55.574;37.474;2022-09-28T10:06:32;8.68;;;5.62;;
26219;SDS011;13955;55.574;37.474;2022-09-28T10:09:05;9.35;;;5.62;;
26219;SDS011;13955;55.574;37.474;2022-09-28T10:11:43;7.55;;;5.83;;
26219;SDS011;13955;55.574;37.474;2022-09-28T10:14:21;5.95;;;4.35;;
26219;SDS011;13955;55.574;37.474;2022-09-28T10:17:05;9.05;;;5.08;;
26219;SDS011;13955;55.574;37.474;2022-09-28T10:19:53;11.75;;;5.85;;
26219;SDS011;13955;55.574;37.474;2022-09-28T10:22:34;7.20;;;4.45;;
26219;SDS011;13955;55.574;37.474;2022-09-28T10:25:06;6.75;;;5.20;;
26219;SDS011;13955;55.574;37.474;2022-09-28T10:27:40;7.05;;;4.85;;
26219;SDS011;13955;55.574;37.474;2022-09-28T10:32:48;10.65;;;6.60;;
26219;SDS011;13955;55.574;37.474;2022-09-28T10:35:23;5.60;;;4.85;;
26219;SDS011;13955;55.574;37.474;2022-09-28T10:37:57;9.60;;;4.83;;
26219;SDS011;13955;55.574;37.474;2022-09-28T10:43:32;5.70;;;3.75;;
26219;SDS011;13955;55.574;37.474;2022-09-28T10:46:06;5.90;;;4.28;;
26219;SDS011;13955;55.574;37.474;2022-09-28T10:48:50;5.87;;;4.30;;
26219;SDS011;13955;55.574;37.474;2022-09-28T10:51:40;5.62;;;4.72;;
26219;SDS011;13955;55.574;37.474;2022-09-28T10:54:19;6.20;;;5.30;;
26219;SDS011;13955;55.574;37.474;2022-09-28T10:56:48;5.55;;;4.90;;
26219;SDS011;13955;55.574;37.474;2022-09-28T10:59:22;9.90;;;4.80;;
26219;SDS011;13955;55.574;37.474;2022-09-28T11:02:02;7.07;;;5.13;;
26219;SDS011;13955;55.574;37.474;2022-09-28T11:04:39;6.50;;;4.87;;
26219;SDS011;13955;55.574;37.474;2022-09-28T11:07:21;6.20;;;4.70;;
26219;SDS011;13955;55.574;37.474;2022-09-28T11:09:49;7.58;;;4.05;;
26219;SDS011;13955;55.574;37.474;2022-09-28T11:12:22;8.88;;;4.65;;
26219;SDS011;13955;55.574;37.474;2022-09-28T11:14:55;7.85;;;4.33;;
26219;SDS011;13955;55.574;37.474;2022-09-28T11:17:35;5.35;;;3.77;;
26219;SDS011;13955;55.574;37.474;2022-09-28T11:23:00;7.03;;;4.08;;
26219;SDS011;13955;55.574;37.474;2022-09-28T11:25:38;6.47;;;4.90;;
26219;SDS011;13955;55.574;37.474;2022-09-28T11:28:17;5.28;;;3.95;;
26219;SDS011;13955;55.574;37.474;2022-09-28T11:30:43;6.45;;;5.45;;
26219;SDS011;13955;55.574;37.474;2022-09-28T11:44:36;7.45;;;4.28;;
26219;SDS011;13955;55.574;37.474;2022-09-28T11:50:02;6.08;;;3.92;;
26219;SDS011;13955;55.574;37.474;2022-09-28T11:55:43;7.65;;;3.98;;
26219;SDS011;13955;55.574;37.474;2022-09-28T11:58:23;5.60;;;3.90;;
26219;SDS011;13955;55.574;37.474;2022-09-28T12:01:00;8.10;;;4.05;;
26219;SDS011;13955;55.574;37.474;2022-09-28T12:03:39;11.03;;;3.77;;
26219;SDS011;13955;55.574;37.474;2022-09-28T12:06:13;8.00;;;3.55;;
26219;SDS011;13955;55.574;37.474;2022-09-28T12:08:46;10.15;;;3.67;;
26219;SDS011;13955;55.574;37.474;2022-09-28T12:11:40;6.28;;;3.45;;
26219;SDS011;13955;55.574;37.474;2022-09-28T12:14:22;7.33;;;3.17;;
26219;SDS011;13955;55.574;37.474;2022-09-28T12:16:58;8.28;;;3.62;;
26219;SDS011;13955;55.574;37.474;2022-09-28T12:19:37;8.60;;;4.40;;
26219;SDS011;13955;55.574;37.474;2022-09-28T12:22:14;7.35;;;2.85;;
26219;SDS011;13955;55.574;37.474;2022-09-28T12:24:48;5.72;;;3.10;;
26219;SDS011;13955;55.574;37.474;2022-09-28T12:27:20;3.40;;;2.52;;
26219;SDS011;13955;55.574;37.474;2022-09-28T12:30:11;5.47;;;3.65;;
26219;SDS011;13955;55.574;37.474;2022-09-28T12:32:45;3.90;;;3.00;;
26219;SDS011;13955;55.574;37.474;2022-09-28T12:35:36;5.60;;;3.02;;
26219;SDS011;13955;55.574;37.474;2022-09-28T12:44:09;3.95;;;2.75;;
26219;SDS011;13955;55.574;37.474;2022-09-28T12:52:47;6.35;;;2.87;;
26219;SDS011;13955;55.574;37.474;2022-09-28T13:00:33;6.28;;;3.58;;
26219;SDS011;13955;55.574;37.474;2022-09-28T13:05:44;5.75;;;3.30;;
26219;SDS011;13955;55.574;37.474;2022-09-28T13:11:20;2.90;;;2.60;;
26219;SDS011;13955;55.574;37.474;2022-09-28T13:17:23;4.30;;;1.90;;
26219;SDS011;13955;55.574;37.474;2022-09-28T13:20:03;3.12;;;2.60;;
26219;SDS011;13955;55.574;37.474;2022-09-28T13:25:39;3.80;;;2.55;;
26219;SDS011;13955;55.574;37.474;2022-09-28T13:28:14;7.78;;;2.95;;
26219;SDS011;13955;55.574;37.474;2022-09-28T13:30:47;6.03;;;3.20;;
26219;SDS011;13955;55.574;37.474;2022-09-28T13:33:27;6.42;;;3.45;;
26219;SDS011;13955;55.574;37.474;2022-09-28T13:35:57;4.22;;;2.83;;
26219;SDS011;13955;55.574;37.474;2022-09-28T13:38:28;4.08;;;2.70;;
26219;SDS011;13955;55.574;37.474;2022-09-28T13:43:44;4.87;;;2.72;;
26219;SDS011;13955;55.574;37.474;2022-09-28T13:46:26;13.65;;;3.67;;
26219;SDS011;13955;55.574;37.474;2022-09-28T13:49:07;8.20;;;2.70;;
26219;SDS011;13955;55.574;37.474;2022-09-28T13:51:50;4.22;;;1.85;;
26219;SDS011;13955;55.574;37.474;2022-09-28T13:57:25;4.10;;;2.25;;
26219;SDS011;13955;55.574;37.474;2022-09-28T14:00:16;7.03;;;3.10;;
26219;SDS011;13955;55.574;37.474;2022-09-28T14:02:50;6.55;;;2.47;;
26219;SDS011;13955;55.574;37.474;2022-09-28T14:10:53;3.85;;;2.87;;
26219;SDS011;13955;55.574;37.474;2022-09-28T14:13:56;4.12;;;2.62;;
26219;SDS011;13955;55.574;37.474;2022-09-28T14:16:31;4.28;;;2.45;;
26219;SDS011;13955;55.574;37.474;2022-09-28T14:18:59;6.60;;;3.40;;
26219;SDS011;13955;55.574;37.474;2022-09-28T14:24:41;3.90;;;3.27;;
26219;SDS011;13955;55.574;37.474;2022-09-28T14:27:17;5.92;;;3.08;;
26219;SDS011;13955;55.574;37.474;2022-09-28T14:30:04;5.70;;;2.90;;
26219;SDS011;13955;55.574;37.474;2022-09-28T14:32:35;5.97;;;2.98;;
26219;SDS011;13955;55.574;37.474;2022-09-28T14:37:47;5.45;;;3.12;;
26219;SDS011;13955;55.574;37.474;2022-09-28T14:57:14;4.72;;;3.35;;
26219;SDS011;13955;55.574;37.474;2022-09-28T14:59:21;5.85;;;3.92;;
26219;SDS011;13955;55.574;37.474;2022-09-28T15:01:54;5.10;;;3.83;;
26219;SDS011;13955;55.574;37.474;2022-09-28T15:04:42;8.30;;;3.85;;
26219;SDS011;13955;55.574;37.474;2022-09-28T15:07:21;7.53;;;4.37;;
26219;SDS011;13955;55.574;37.474;2022-09-28T15:09:55;7.37;;;4.00;;
26219;SDS011;13955;55.574;37.474;2022-09-28T15:12:26;6.15;;;3.75;;
26219;SDS011;13955;55.574;37.474;2022-09-28T15:14:58;7.60;;;4.35;;
26219;SDS011;13955;55.574;37.474;2022-09-28T15:17:31;6.28;;;4.30;;
26219;SDS011;13955;55.574;37.474;2022-09-28T15:22:54;9.83;;;4.67;;
26219;SDS011;13955;55.574;37.474;2022-09-28T15:25:29;6.47;;;4.60;;
26219;SDS011;13955;55.574;37.474;2022-09-28T15:28:10;8.58;;;5.33;;
26219;SDS011;13955;55.574;37.474;2022-09-28T15:30:43;6.28;;;4.08;;
26219;SDS011;13955;55.574;37.474;2022-09-28T15:33:24;11.70;;;4.17;;
26219;SDS011;13955;55.574;37.474;2022-09-28T15:36:24;11.88;;;5.28;;
26219;SDS011;13955;55.574;37.474;2022-09-28T15:39:00;7.12;;;4.00;;
26219;SDS011;13955;55.574;37.474;2022-09-28T15:41:32;3.70;;;2.87;;
26219;SDS011;13955;55.574;37.474;2022-09-28T15:46:42;8.63;;;5.58;;
26219;SDS011;13955;55.574;37.474;2022-09-28T15:49:23;14.00;;;5.47;;
26219;SDS011;13955;55.574;37.474;2022-09-28T15:51:55;7.95;;;5.22;;
26219;SDS011;13955;55.574;37.474;2022-09-28T15:54:34;15.05;;;7.92;;
26219;SDS011;13955;55.574;37.474;2022-09-28T15:57:09;8.33;;;4.70;;
26219;SDS011;13955;55.574;37.474;2022-09-28T15:59:39;8.55;;;4.45;;
26219;SDS011;13955;55.574;37.474;2022-09-28T16:02:22;7.87;;;4.33;;
26219;SDS011;13955;55.574;37.474;2022-09-28T16:04:54;11.48;;;5.53;;
26219;SDS011;13955;55.574;37.474;2022-09-28T16:12:45;9.35;;;4.67;;
26219;SDS011;13955;55.574;37.474;2022-09-28T16:15:26;12.30;;;5.95;;
26219;SDS011;13955;55.574;37.474;2022-09-28T16:17:59;8.93;;;3.80;;
26219;SDS011;13955;55.574;37.474;2022-09-28T16:20:36;8.90;;;5.00;;
26219;SDS011;13955;55.574;37.474;2022-09-28T16:23:14;6.97;;;4.87;;
26219;SDS011;13955;55.574;37.474;2022-09-28T16:26:00;15.18;;;7.12;;
26219;SDS011;13955;55.574;37.474;2022-09-28T16:33:56;14.53;;;5.60;;
26219;SDS011;13955;55.574;37.474;2022-09-28T16:36:37;9.68;;;6.85;;
26219;SDS011;13955;55.574;37.474;2022-09-28T16:39:13;10.13;;;6.55;;
26219;SDS011;13955;55.574;37.474;2022-09-28T16:41:45;8.43;;;5.08;;
26219;SDS011;13955;55.574;37.474;2022-09-28T16:44:24;5.85;;;3.67;;
26219;SDS011;13955;55.574;37.474;2022-09-28T16:47:00;7.25;;;4.42;;
26219;SDS011;13955;55.574;37.474;2022-09-28T16:49:31;10.32;;;5.83;;
26219;SDS011;13955;55.574;37.474;2022-09-28T16:52:01;9.40;;;4.73;;
26219;SDS011;13955;55.574;37.474;2022-09-28T16:54:32;8.68;;;3.72;;
26219;SDS011;13955;55.574;37.474;2022-09-28T16:57:20;5.03;;;3.00;;
26219;SDS011;13955;55.574;37.474;2022-09-28T16:59:50;5.30;;;3.58;;
26219;SDS011;13955;55.574;37.474;2022-09-28T17:02:20;5.33;;;3.60;;
26219;SDS011;13955;55.574;37.474;2022-09-28T17:04:52;9.88;;;4.97;;
26219;SDS011;13955;55.574;37.474;2022-09-28T17:07:24;11.22;;;5.47;;
26219;SDS011;13955;55.574;37.474;2022-09-28T17:09:54;9.15;;;6.17;;
26219;SDS011;13955;55.574;37.474;2022-09-28T17:12:24;16.03;;;6.57;;
26219;SDS011;13955;55.574;37.474;2022-09-28T17:14:56;5.67;;;3.30;;
26219;SDS011;13955;55.574;37.474;2022-09-28T17:17:27;8.38;;;5.00;;
26219;SDS011;13955;55.574;37.474;2022-09-28T17:19:58;8.60;;;5.72;;
26219;SDS011;13955;55.574;37.474;2022-09-28T17:22:29;4.67;;;3.15;;
26219;SDS011;13955;55.574;37.474;2022-09-28T17:25:00;11.80;;;6.60;;
26219;SDS011;13955;55.574;37.474;2022-09-28T17:27:30;8.63;;;5.55;;
26219;SDS011;13955;55.574;37.474;2022-09-28T17:32:32;10.15;;;6.47;;
26219;SDS011;13955;55.574;37.474;2022-09-28T17:35:02;12.80;;;6.60;;
26219;SDS011;13955;55.574;37.474;2022-09-28T17:37:33;10.30;;;4.72;;
26219;SDS011;13955;55.574;37.474;2022-09-28T17:40:16;11.63;;;6.53;;
26219;SDS011;13955;55.574;37.474;2022-09-28T17:42:52;18.20;;;12.45;;
26219;SDS011;13955;55.574;37.474;2022-09-28T17:45:24;12.18;;;6.83;;
26219;SDS011;13955;55.574;37.474;2022-09-28T17:47:57;9.30;;;6.35;;
26219;SDS011;13955;55.574;37.474;2022-09-28T17:50:29;6.37;;;4.08;;
26219;SDS011;13955;55.574;37.474;2022-09-28T17:53:02;12.85;;;5.90;;
26219;SDS011;13955;55.574;37.474;2022-09-28T17:55:34;8.15;;;4.05;;
26219;SDS011;13955;55.574;37.474;2022-09-28T17:58:16;8.40;;;5.58;;
26219;SDS011;13955;55.574;37.474;2022-09-28T18:00:49;9.78;;;4.87;;
26219;SDS011;13955;55.574;37.474;2022-09-28T18:06:05;5.80;;;4.17;;
26219;SDS011;13955;55.574;37.474;2022-09-28T18:08:33;9.25;;;5.90;;
26219;SDS011;13955;55.574;37.474;2022-09-28T18:11:05;16.93;;;5.67;;